sensor_id;sensor_type;location;lat;lon;timestamp;pressure;altitude;pressure_sealevel;temperature;humidity
55456;BME280;46961;52.836;6.376;2022-08-11T00:00:44;102506.25;;;18.57;63.17
55456;BME280;46961;52.836;6.376;2022-08-11T00:03:16;102504.06;;;18.52;63.18
55456;BME280;46961;52.836;6.376;2022-08-11T00:08:26;102496.78;;;18.45;63.33
55456;BME280;46961;52.836;6.376;2022-08-11T00:11:06;102503.31;;;18.42;63.31
55456;BME280;46961;52.836;6.376;2022-08-11T00:13:50;102503.81;;;18.38;63.08
55456;BME280;46961;52.836;6.376;2022-08-11T00:16:20;102494.34;;;18.33;63.58
55456;BME280;46961;52.836;6.376;2022-08-11T00:18:53;102496.31;;;18.31;63.87
55456;BME280;46961;52.836;6.376;2022-08-11T00:21:23;102502.19;;;18.27;63.88
55456;BME280;46961;52.836;6.376;2022-08-11T00:24:02;102502.50;;;18.24;63.95
55456;BME280;46961;52.836;6.376;2022-08-11T00:26:33;102507.34;;;18.20;63.90
55456;BME280;46961;52.836;6.376;2022-08-11T00:29:11;102512.22;;;18.16;63.90
55456;BME280;46961;52.836;6.376;2022-08-11T00:31:47;102509.16;;;18.11;63.60
55456;BME280;46961;52.836;6.376;2022-08-11T00:34:22;102504.06;;;18.08;64.15
55456;BME280;46961;52.836;6.376;2022-08-11T00:39:34;102508.06;;;18.04;64.17
55456;BME280;46961;52.836;6.376;2022-08-11T00:42:15;102497.78;;;17.99;64.31
55456;BME280;46961;52.836;6.376;2022-08-11T00:47:52;102500.09;;;17.94;64.29
55456;BME280;46961;52.836;6.376;2022-08-11T00:50:28;102505.06;;;17.89;64.97
55456;BME280;46961;52.836;6.376;2022-08-11T01:02:16;102510.00;;;17.76;65.34
55456;BME280;46961;52.836;6.376;2022-08-11T01:05:23;102513.84;;;17.73;64.77
55456;BME280;46961;52.836;6.376;2022-08-11T01:08:35;102510.59;;;17.70;65.17
55456;BME280;46961;52.836;6.376;2022-08-11T01:14:36;102513.38;;;17.60;65.22
55456;BME280;46961;52.836;6.376;2022-08-11T01:20:14;102504.66;;;17.48;65.67
55456;BME280;46961;52.836;6.376;2022-08-11T01:51:22;102489.84;;;17.16;66.93
55456;BME280;46961;52.836;6.376;2022-08-11T01:54:13;102496.53;;;17.12;66.84
55456;BME280;46961;52.836;6.376;2022-08-11T01:59:38;102498.84;;;17.07;66.47
55456;BME280;46961;52.836;6.376;2022-08-11T02:05:46;102486.09;;;16.99;66.96
55456;BME280;46961;52.836;6.376;2022-08-11T02:11:25;102493.06;;;16.92;67.08
55456;BME280;46961;52.836;6.376;2022-08-11T02:19:37;102490.41;;;16.82;67.51
55456;BME280;46961;52.836;6.376;2022-08-11T02:26:03;102483.75;;;16.76;67.63
55456;BME280;46961;52.836;6.376;2022-08-11T02:31:32;102480.84;;;16.70;67.95
55456;BME280;46961;52.836;6.376;2022-08-11T02:34:50;102484.38;;;16.70;68.08
55456;BME280;46961;52.836;6.376;2022-08-11T02:37:39;102490.19;;;16.66;67.94
55456;BME280;46961;52.836;6.376;2022-08-11T02:46:21;102496.31;;;16.58;68.20
55456;BME280;46961;52.836;6.376;2022-08-11T02:49:04;102480.44;;;16.55;68.86
55456;BME280;46961;52.836;6.376;2022-08-11T02:54:52;102479.91;;;16.51;68.44
55456;BME280;46961;52.836;6.376;2022-08-11T03:01:25;102478.34;;;16.49;68.71
55456;BME280;46961;52.836;6.376;2022-08-11T03:04:06;102476.78;;;16.46;68.77
55456;BME280;46961;52.836;6.376;2022-08-11T03:07:07;102481.34;;;16.45;68.96
55456;BME280;46961;52.836;6.376;2022-08-11T03:09:44;102476.94;;;16.44;68.79
55456;BME280;46961;52.836;6.376;2022-08-11T03:12:29;102480.66;;;16.43;69.01
55456;BME280;46961;52.836;6.376;2022-08-11T03:15:23;102481.63;;;16.42;68.26
55456;BME280;46961;52.836;6.376;2022-08-11T03:18:43;102476.56;;;16.39;68.60
55456;BME280;46961;52.836;6.376;2022-08-11T03:21:20;102478.38;;;16.39;68.88
55456;BME280;46961;52.836;6.376;2022-08-11T03:24:16;102473.16;;;16.37;69.04
55456;BME280;46961;52.836;6.376;2022-08-11T03:29:39;102470.75;;;16.34;69.47
55456;BME280;46961;52.836;6.376;2022-08-11T03:32:21;102476.97;;;16.35;69.10
55456;BME280;46961;52.836;6.376;2022-08-11T03:34:55;102467.38;;;16.32;69.55
55456;BME280;46961;52.836;6.376;2022-08-11T03:37:40;102470.91;;;16.33;69.38
55456;BME280;46961;52.836;6.376;2022-08-11T03:43:32;102468.50;;;16.30;69.59
55456;BME280;46961;52.836;6.376;2022-08-11T03:46:15;102470.47;;;16.27;69.16
55456;BME280;46961;52.836;6.376;2022-08-11T03:48:58;102465.41;;;16.24;69.40
55456;BME280;46961;52.836;6.376;2022-08-11T03:51:56;102469.94;;;16.24;69.93
55456;BME280;46961;52.836;6.376;2022-08-11T03:54:45;102466.53;;;16.22;69.44
55456;BME280;46961;52.836;6.376;2022-08-11T04:00:45;102471.34;;;16.18;69.62
55456;BME280;46961;52.836;6.376;2022-08-11T04:06:35;102465.56;;;16.13;69.67
55456;BME280;46961;52.836;6.376;2022-08-11T04:18:36;102464.03;;;16.01;69.82
55456;BME280;46961;52.836;6.376;2022-08-11T04:59:27;102463.34;;;15.89;70.88
55456;BME280;46961;52.836;6.376;2022-08-11T05:13:49;102462.19;;;16.01;71.15
55456;BME280;46961;52.836;6.376;2022-08-11T05:16:52;102471.50;;;16.07;71.01
55456;BME280;46961;52.836;6.376;2022-08-11T05:19:44;102471.06;;;16.11;70.90
55456;BME280;46961;52.836;6.376;2022-08-11T05:22:33;102459.19;;;16.14;71.00
55456;BME280;46961;52.836;6.376;2022-08-11T05:28:52;102467.94;;;16.26;71.68
55456;BME280;46961;52.836;6.376;2022-08-11T05:31:42;102470.22;;;16.31;71.61
55456;BME280;46961;52.836;6.376;2022-08-11T05:34:50;102483.75;;;16.39;71.45
55456;BME280;46961;52.836;6.376;2022-08-11T05:41:07;102475.06;;;16.55;71.80
55456;BME280;46961;52.836;6.376;2022-08-11T05:44:02;102477.88;;;16.63;71.90
55456;BME280;46961;52.836;6.376;2022-08-11T05:46:57;102488.47;;;16.74;71.96
55456;BME280;46961;52.836;6.376;2022-08-11T05:49:51;102480.34;;;16.84;71.73
55456;BME280;46961;52.836;6.376;2022-08-11T05:52:43;102484.72;;;16.95;71.71
55456;BME280;46961;52.836;6.376;2022-08-11T05:55:32;102479.28;;;17.05;71.65
55456;BME280;46961;52.836;6.376;2022-08-11T05:58:19;102474.84;;;17.13;71.88
55456;BME280;46961;52.836;6.376;2022-08-11T06:00:52;102473.81;;;17.24;71.74
55456;BME280;46961;52.836;6.376;2022-08-11T06:03:30;102464.66;;;17.35;71.52
55456;BME280;46961;52.836;6.376;2022-08-11T06:06:00;102471.66;;;17.46;71.24
55456;BME280;46961;52.836;6.376;2022-08-11T06:08:41;102471.28;;;17.59;71.34
55456;BME280;46961;52.836;6.376;2022-08-11T06:11:07;102472.38;;;17.66;71.67
55456;BME280;46961;52.836;6.376;2022-08-11T06:13:44;102464.91;;;17.78;71.38
55456;BME280;46961;52.836;6.376;2022-08-11T06:16:18;102467.50;;;17.88;72.13
55456;BME280;46961;52.836;6.376;2022-08-11T06:18:51;102469.13;;;17.98;71.88
55456;BME280;46961;52.836;6.376;2022-08-11T06:21:22;102471.72;;;18.08;71.76
55456;BME280;46961;52.836;6.376;2022-08-11T06:23:51;102465.09;;;18.21;71.43
55456;BME280;46961;52.836;6.376;2022-08-11T06:26:21;102462.47;;;18.29;71.29
55456;BME280;46961;52.836;6.376;2022-08-11T06:28:57;102457.81;;;18.39;71.64
55456;BME280;46961;52.836;6.376;2022-08-11T06:31:26;102462.94;;;18.50;70.73
55456;BME280;46961;52.836;6.376;2022-08-11T06:34:10;102457.56;;;18.59;70.93
55456;BME280;46961;52.836;6.376;2022-08-11T06:36:50;102462.34;;;18.73;70.77
55456;BME280;46961;52.836;6.376;2022-08-11T06:39:36;102463.75;;;18.85;70.58
55456;BME280;46961;52.836;6.376;2022-08-11T06:42:13;102453.88;;;18.94;70.55
55456;BME280;46961;52.836;6.376;2022-08-11T06:47:43;102453.09;;;19.18;69.81
55456;BME280;46961;52.836;6.376;2022-08-11T06:50:23;102453.81;;;19.29;69.33
55456;BME280;46961;52.836;6.376;2022-08-11T06:53:09;102454.50;;;19.39;68.98
55456;BME280;46961;52.836;6.376;2022-08-11T06:55:41;102455.19;;;19.49;67.92
55456;BME280;46961;52.836;6.376;2022-08-11T06:58:36;102454.19;;;19.59;67.78
55456;BME280;46961;52.836;6.376;2022-08-11T07:01:33;102450.13;;;19.71;68.10
55456;BME280;46961;52.836;6.376;2022-08-11T07:04:09;102454.56;;;19.80;67.76
55456;BME280;46961;52.836;6.376;2022-08-11T07:06:54;102455.94;;;19.93;67.66
55456;BME280;46961;52.836;6.376;2022-08-11T07:12:55;102443.38;;;20.16;67.00
55456;BME280;46961;52.836;6.376;2022-08-11T07:15:44;102455.53;;;20.29;66.52
55456;BME280;46961;52.836;6.376;2022-08-11T07:18:24;102451.44;;;20.41;65.99
55456;BME280;46961;52.836;6.376;2022-08-11T07:24:18;102452.56;;;20.63;65.49
55456;BME280;46961;52.836;6.376;2022-08-11T07:27:13;102448.28;;;20.77;65.18
55456;BME280;46961;52.836;6.376;2022-08-11T07:30:07;102446.91;;;20.89;64.85
55456;BME280;46961;52.836;6.376;2022-08-11T07:32:50;102450.06;;;21.01;64.25
55456;BME280;46961;52.836;6.376;2022-08-11T07:35:27;102447.97;;;21.11;63.81
55456;BME280;46961;52.836;6.376;2022-08-11T07:38:04;102444.00;;;21.22;63.50
55456;BME280;46961;52.836;6.376;2022-08-11T07:40:48;102442.56;;;21.35;63.13
55456;BME280;46961;52.836;6.376;2022-08-11T07:43:20;102439.63;;;21.44;62.82
55456;BME280;46961;52.836;6.376;2022-08-11T07:45:48;102443.13;;;21.53;62.33
55456;BME280;46961;52.836;6.376;2022-08-11T07:48:36;102436.47;;;21.64;62.10
55456;BME280;46961;52.836;6.376;2022-08-11T07:51:21;102437.88;;;21.75;61.58
55456;BME280;46961;52.836;6.376;2022-08-11T07:54:06;102429.50;;;21.85;60.64
55456;BME280;46961;52.836;6.376;2022-08-11T07:56:40;102433.66;;;21.95;60.60
55456;BME280;46961;52.836;6.376;2022-08-11T07:59:08;102433.56;;;22.04;59.58
55456;BME280;46961;52.836;6.376;2022-08-11T08:01:55;102442.28;;;22.14;60.21
55456;BME280;46961;52.836;6.376;2022-08-11T08:04:43;102435.75;;;22.23;58.90
55456;BME280;46961;52.836;6.376;2022-08-11T08:07:30;102441.09;;;22.31;58.66
55456;BME280;46961;52.836;6.376;2022-08-11T08:10:16;102441.69;;;22.42;58.27
55456;BME280;46961;52.836;6.376;2022-08-11T08:13:05;102430.72;;;22.50;57.95
55456;BME280;46961;52.836;6.376;2022-08-11T08:15:52;102429.41;;;22.61;57.91
55456;BME280;46961;52.836;6.376;2022-08-11T08:18:39;102434.53;;;22.71;57.65
55456;BME280;46961;52.836;6.376;2022-08-11T08:21:07;102435.47;;;22.78;57.07
55456;BME280;46961;52.836;6.376;2022-08-11T08:23:41;102431.25;;;22.90;57.37
55456;BME280;46961;52.836;6.376;2022-08-11T08:26:10;102430.75;;;23.01;56.72
55456;BME280;46961;52.836;6.376;2022-08-11T08:29:05;102436.75;;;23.12;56.24
55456;BME280;46961;52.836;6.376;2022-08-11T08:31:52;102436.44;;;23.22;55.61
55456;BME280;46961;52.836;6.376;2022-08-11T08:34:25;102437.16;;;23.30;55.06
55456;BME280;46961;52.836;6.376;2022-08-11T08:37:00;102425.75;;;23.42;54.20
55456;BME280;46961;52.836;6.376;2022-08-11T08:39:31;102428.13;;;23.51;54.21
55456;BME280;46961;52.836;6.376;2022-08-11T08:42:08;102405.63;;;23.58;53.72
55456;BME280;46961;52.836;6.376;2022-08-11T08:44:41;102427.50;;;23.71;53.68
55456;BME280;46961;52.836;6.376;2022-08-11T08:47:13;102422.75;;;23.80;52.53
55456;BME280;46961;52.836;6.376;2022-08-11T08:49:45;102423.66;;;23.87;51.85
55456;BME280;46961;52.836;6.376;2022-08-11T08:52:17;102418.72;;;23.97;50.62
55456;BME280;46961;52.836;6.376;2022-08-11T08:54:45;102420.47;;;24.05;49.67
55456;BME280;46961;52.836;6.376;2022-08-11T08:57:18;102421.78;;;24.16;49.21
55456;BME280;46961;52.836;6.376;2022-08-11T08:59:49;102424.78;;;24.28;50.22
55456;BME280;46961;52.836;6.376;2022-08-11T09:02:18;102427.13;;;24.37;49.58
55456;BME280;46961;52.836;6.376;2022-08-11T09:04:46;102424.88;;;24.48;47.68
55456;BME280;46961;52.836;6.376;2022-08-11T09:07:15;102429.34;;;24.55;47.27
55456;BME280;46961;52.836;6.376;2022-08-11T09:09:48;102415.75;;;24.62;46.33
55456;BME280;46961;52.836;6.376;2022-08-11T09:12:25;102425.47;;;24.71;45.74
55456;BME280;46961;52.836;6.376;2022-08-11T09:14:52;102420.00;;;24.78;45.31
55456;BME280;46961;52.836;6.376;2022-08-11T09:17:26;102420.50;;;24.88;44.98
55456;BME280;46961;52.836;6.376;2022-08-11T09:19:56;102421.78;;;24.99;43.77
55456;BME280;46961;52.836;6.376;2022-08-11T09:22:26;102418.03;;;25.07;42.65
55456;BME280;46961;52.836;6.376;2022-08-11T09:25:10;102404.19;;;25.15;42.24
55456;BME280;46961;52.836;6.376;2022-08-11T09:27:56;102415.75;;;25.24;41.64
55456;BME280;46961;52.836;6.376;2022-08-11T09:30:26;102415.59;;;25.32;41.51
55456;BME280;46961;52.836;6.376;2022-08-11T09:32:58;102414.34;;;25.41;41.10
55456;BME280;46961;52.836;6.376;2022-08-11T09:35:27;102404.91;;;25.51;40.59
55456;BME280;46961;52.836;6.376;2022-08-11T09:38:03;102412.69;;;25.61;40.22
55456;BME280;46961;52.836;6.376;2022-08-11T09:40:48;102418.53;;;25.71;40.21
55456;BME280;46961;52.836;6.376;2022-08-11T09:43:23;102413.50;;;25.81;40.01
55456;BME280;46961;52.836;6.376;2022-08-11T09:46:11;102406.78;;;25.90;39.44
55456;BME280;46961;52.836;6.376;2022-08-11T09:48:41;102409.09;;;26.00;38.50
55456;BME280;46961;52.836;6.376;2022-08-11T09:51:09;102408.06;;;26.08;38.77
55456;BME280;46961;52.836;6.376;2022-08-11T09:56:56;102405.50;;;26.26;38.54
55456;BME280;46961;52.836;6.376;2022-08-11T09:59:43;102407.56;;;26.38;38.80
55456;BME280;46961;52.836;6.376;2022-08-11T10:02:13;102400.78;;;26.47;37.79
55456;BME280;46961;52.836;6.376;2022-08-11T10:04:46;102398.88;;;26.54;38.16
55456;BME280;46961;52.836;6.376;2022-08-11T10:07:15;102406.59;;;26.64;37.95
55456;BME280;46961;52.836;6.376;2022-08-11T10:09:54;102397.13;;;26.73;38.20
55456;BME280;46961;52.836;6.376;2022-08-11T10:12:31;102397.72;;;26.82;37.11
55456;BME280;46961;52.836;6.376;2022-08-11T10:15:06;102397.69;;;26.89;36.05
55456;BME280;46961;52.836;6.376;2022-08-11T10:17:53;102405.63;;;26.97;37.32
55456;BME280;46961;52.836;6.376;2022-08-11T10:20:43;102397.22;;;26.99;36.48
55456;BME280;46961;52.836;6.376;2022-08-11T10:23:11;102390.84;;;27.05;35.91
55456;BME280;46961;52.836;6.376;2022-08-11T10:25:58;102384.09;;;27.14;35.91
55456;BME280;46961;52.836;6.376;2022-08-11T10:28:45;102392.00;;;27.22;35.43
55456;BME280;46961;52.836;6.376;2022-08-11T10:31:13;102383.75;;;27.29;36.34
55456;BME280;46961;52.836;6.376;2022-08-11T10:33:58;102382.44;;;27.38;35.40
55456;BME280;46961;52.836;6.376;2022-08-11T10:36:38;102379.22;;;27.48;35.94
55456;BME280;46961;52.836;6.376;2022-08-11T10:39:12;102378.72;;;27.58;36.09
55456;BME280;46961;52.836;6.376;2022-08-11T10:41:48;102374.66;;;27.67;35.09
55456;BME280;46961;52.836;6.376;2022-08-11T10:44:47;102381.72;;;27.75;35.58
55456;BME280;46961;52.836;6.376;2022-08-11T10:47:20;102371.53;;;27.82;34.98
55456;BME280;46961;52.836;6.376;2022-08-11T10:50:13;102371.03;;;27.92;34.76
55456;BME280;46961;52.836;6.376;2022-08-11T10:53:04;102363.38;;;28.00;35.43
55456;BME280;46961;52.836;6.376;2022-08-11T10:56:00;102362.22;;;28.08;35.13
55456;BME280;46961;52.836;6.376;2022-08-11T10:58:48;102361.72;;;28.18;35.08
55456;BME280;46961;52.836;6.376;2022-08-11T11:01:17;102363.69;;;28.29;34.74
55456;BME280;46961;52.836;6.376;2022-08-11T11:03:54;102372.19;;;28.40;33.82
55456;BME280;46961;52.836;6.376;2022-08-11T11:06:37;102359.25;;;28.47;33.50
55456;BME280;46961;52.836;6.376;2022-08-11T11:09:30;102354.91;;;28.58;33.77
55456;BME280;46961;52.836;6.376;2022-08-11T11:12:41;102355.69;;;28.65;33.19
55456;BME280;46961;52.836;6.376;2022-08-11T11:18:47;102346.03;;;28.74;32.83
55456;BME280;46961;52.836;6.376;2022-08-11T11:21:18;102341.91;;;28.83;32.28
55456;BME280;46961;52.836;6.376;2022-08-11T11:26:41;102333.00;;;29.00;32.96
55456;BME280;46961;52.836;6.376;2022-08-11T11:32:41;102344.38;;;29.15;32.43
55456;BME280;46961;52.836;6.376;2022-08-11T11:35:21;102333.28;;;29.22;32.32
55456;BME280;46961;52.836;6.376;2022-08-11T11:37:58;102328.53;;;29.29;32.10
55456;BME280;46961;52.836;6.376;2022-08-11T11:40:40;102326.31;;;29.38;31.26
55456;BME280;46961;52.836;6.376;2022-08-11T11:43:11;102324.50;;;29.44;31.27
55456;BME280;46961;52.836;6.376;2022-08-11T11:45:48;102333.22;;;29.52;31.03
55456;BME280;46961;52.836;6.376;2022-08-11T11:48:17;102331.53;;;29.63;31.43
55456;BME280;46961;52.836;6.376;2022-08-11T11:50:48;102318.91;;;29.74;31.17
55456;BME280;46961;52.836;6.376;2022-08-11T11:53:20;102322.13;;;29.83;31.17
55456;BME280;46961;52.836;6.376;2022-08-11T11:55:53;102317.09;;;29.92;30.70
55456;BME280;46961;52.836;6.376;2022-08-11T11:58:21;102319.25;;;30.01;30.20
55456;BME280;46961;52.836;6.376;2022-08-11T12:01:07;102323.25;;;30.11;30.22
55456;BME280;46961;52.836;6.376;2022-08-11T12:03:46;102323.72;;;30.19;28.99
55456;BME280;46961;52.836;6.376;2022-08-11T12:06:17;102316.16;;;30.27;28.99
55456;BME280;46961;52.836;6.376;2022-08-11T12:08:49;102306.94;;;30.33;29.48
55456;BME280;46961;52.836;6.376;2022-08-11T12:11:18;102308.47;;;30.40;29.55
55456;BME280;46961;52.836;6.376;2022-08-11T12:14:08;102307.19;;;30.43;29.21
55456;BME280;46961;52.836;6.376;2022-08-11T12:16:44;102302.13;;;30.52;29.71
55456;BME280;46961;52.836;6.376;2022-08-11T12:19:16;102310.81;;;30.61;29.22
55456;BME280;46961;52.836;6.376;2022-08-11T12:21:44;102302.63;;;30.66;28.86
55456;BME280;46961;52.836;6.376;2022-08-11T12:24:31;102300.56;;;30.73;28.74
55456;BME280;46961;52.836;6.376;2022-08-11T12:27:20;102293.84;;;30.81;28.88
55456;BME280;46961;52.836;6.376;2022-08-11T12:29:52;102286.00;;;30.89;28.56
55456;BME280;46961;52.836;6.376;2022-08-11T12:32:20;102281.53;;;31.00;28.96
55456;BME280;46961;52.836;6.376;2022-08-11T12:34:51;102285.28;;;31.11;28.94
55456;BME280;46961;52.836;6.376;2022-08-11T12:40:07;102278.91;;;31.27;27.78
55456;BME280;46961;52.836;6.376;2022-08-11T12:42:52;102279.84;;;31.33;28.32
55456;BME280;46961;52.836;6.376;2022-08-11T12:45:43;102274.69;;;31.37;28.72
55456;BME280;46961;52.836;6.376;2022-08-11T12:48:17;102265.41;;;31.43;28.95
55456;BME280;46961;52.836;6.376;2022-08-11T12:51:06;102259.97;;;31.48;27.19
55456;BME280;46961;52.836;6.376;2022-08-11T12:53:54;102268.03;;;31.55;27.04
55456;BME280;46961;52.836;6.376;2022-08-11T12:56:24;102260.69;;;31.60;27.24
55456;BME280;46961;52.836;6.376;2022-08-11T12:59:14;102261.94;;;31.70;27.66
55456;BME280;46961;52.836;6.376;2022-08-11T13:02:01;102253.81;;;31.80;27.40
55456;BME280;46961;52.836;6.376;2022-08-11T13:04:50;102243.72;;;31.91;27.16
55456;BME280;46961;52.836;6.376;2022-08-11T13:07:32;102247.72;;;32.00;26.57
55456;BME280;46961;52.836;6.376;2022-08-11T13:10:05;102241.41;;;32.05;26.77
55456;BME280;46961;52.836;6.376;2022-08-11T13:12:35;102241.50;;;32.10;26.71
55456;BME280;46961;52.836;6.376;2022-08-11T13:15:16;102241.63;;;32.20;27.21
55456;BME280;46961;52.836;6.376;2022-08-11T13:17:43;102235.38;;;32.30;26.61
55456;BME280;46961;52.836;6.376;2022-08-11T13:20:16;102231.06;;;32.39;25.81
55456;BME280;46961;52.836;6.376;2022-08-11T13:22:56;102232.25;;;32.49;25.80
55456;BME280;46961;52.836;6.376;2022-08-11T13:25:26;102219.38;;;32.59;27.09
55456;BME280;46961;52.836;6.376;2022-08-11T13:28:00;102217.06;;;32.73;26.37
55456;BME280;46961;52.836;6.376;2022-08-11T13:30:30;102220.19;;;32.87;25.57
55456;BME280;46961;52.836;6.376;2022-08-11T13:33:19;102216.97;;;33.01;26.14
55456;BME280;46961;52.836;6.376;2022-08-11T13:35:46;102224.22;;;33.12;25.17
55456;BME280;46961;52.836;6.376;2022-08-11T13:38:18;102220.09;;;33.20;25.52
55456;BME280;46961;52.836;6.376;2022-08-11T13:40:50;102219.09;;;33.31;25.76
55456;BME280;46961;52.836;6.376;2022-08-11T13:43:23;102213.91;;;33.40;25.35
55456;BME280;46961;52.836;6.376;2022-08-11T13:45:52;102224.72;;;33.46;25.40
55456;BME280;46961;52.836;6.376;2022-08-11T13:48:41;102219.50;;;33.55;25.49
55456;BME280;46961;52.836;6.376;2022-08-11T13:51:11;102221.47;;;33.70;25.20
55456;BME280;46961;52.836;6.376;2022-08-11T13:54:09;102221.56;;;33.86;23.90
55456;BME280;46961;52.836;6.376;2022-08-11T13:56:38;102213.84;;;33.93;24.47
55456;BME280;46961;52.836;6.376;2022-08-11T13:59:12;102214.13;;;34.01;23.85
55456;BME280;46961;52.836;6.376;2022-08-11T14:01:42;102217.19;;;34.10;23.76
55456;BME280;46961;52.836;6.376;2022-08-11T14:04:15;102222.47;;;34.22;23.84
55456;BME280;46961;52.836;6.376;2022-08-11T14:06:50;102212.00;;;34.34;22.46
55456;BME280;46961;52.836;6.376;2022-08-11T14:09:25;102207.84;;;34.42;21.67
55456;BME280;46961;52.836;6.376;2022-08-11T14:11:57;102203.72;;;34.40;21.98
55456;BME280;46961;52.836;6.376;2022-08-11T14:14:47;102208.13;;;34.51;22.73
55456;BME280;46961;52.836;6.376;2022-08-11T14:17:16;102210.91;;;34.61;21.97
55456;BME280;46961;52.836;6.376;2022-08-11T14:23:16;102194.28;;;34.77;22.36
55456;BME280;46961;52.836;6.376;2022-08-11T14:25:48;102196.81;;;34.89;22.41
55456;BME280;46961;52.836;6.376;2022-08-11T14:28:33;102193.44;;;35.07;22.86
55456;BME280;46961;52.836;6.376;2022-08-11T14:31:03;102188.97;;;35.21;22.36
55456;BME280;46961;52.836;6.376;2022-08-11T14:33:35;102188.38;;;35.35;22.45
55456;BME280;46961;52.836;6.376;2022-08-11T14:36:04;102183.91;;;35.44;22.13
55456;BME280;46961;52.836;6.376;2022-08-11T14:38:37;102184.13;;;35.53;21.65
55456;BME280;46961;52.836;6.376;2022-08-11T14:41:34;102178.88;;;35.62;20.88
55456;BME280;46961;52.836;6.376;2022-08-11T14:44:24;102183.50;;;35.71;21.38
55456;BME280;46961;52.836;6.376;2022-08-11T14:47:08;102175.19;;;35.82;21.06
55456;BME280;46961;52.836;6.376;2022-08-11T14:49:42;102172.56;;;35.96;21.00
55456;BME280;46961;52.836;6.376;2022-08-11T14:52:17;102172.19;;;36.07;20.63
55456;BME280;46961;52.836;6.376;2022-08-11T14:54:50;102169.94;;;36.15;20.20
55456;BME280;46961;52.836;6.376;2022-08-11T14:57:39;102174.28;;;36.26;21.26
55456;BME280;46961;52.836;6.376;2022-08-11T15:00:09;102175.34;;;36.35;20.74
55456;BME280;46961;52.836;6.376;2022-08-11T15:02:43;102170.91;;;36.34;20.75
55456;BME280;46961;52.836;6.376;2022-08-11T15:05:32;102163.09;;;36.41;20.53
55456;BME280;46961;52.836;6.376;2022-08-11T15:08:02;102158.28;;;36.52;20.95
55456;BME280;46961;52.836;6.376;2022-08-11T15:10:33;102157.88;;;36.64;20.72
55456;BME280;46961;52.836;6.376;2022-08-11T15:13:01;102158.06;;;36.78;20.03
55456;BME280;46961;52.836;6.376;2022-08-11T15:15:28;102154.88;;;36.90;19.08
55456;BME280;46961;52.836;6.376;2022-08-11T15:18:18;102148.69;;;36.98;19.17
55456;BME280;46961;52.836;6.376;2022-08-11T15:20:49;102144.72;;;37.04;19.03
55456;BME280;46961;52.836;6.376;2022-08-11T15:23:38;102144.34;;;37.11;19.97
55456;BME280;46961;52.836;6.376;2022-08-11T15:26:30;102140.59;;;37.26;19.02
55456;BME280;46961;52.836;6.376;2022-08-11T15:29:20;102141.50;;;37.40;19.49
55456;BME280;46961;52.836;6.376;2022-08-11T15:32:09;102136.03;;;37.54;19.33
55456;BME280;46961;52.836;6.376;2022-08-11T15:34:58;102132.81;;;37.66;19.15
55456;BME280;46961;52.836;6.376;2022-08-11T15:37:51;102133.72;;;37.81;19.11
55456;BME280;46961;52.836;6.376;2022-08-11T15:40:28;102128.06;;;37.86;18.69
55456;BME280;46961;52.836;6.376;2022-08-11T15:43:33;102127.00;;;38.01;18.30
55456;BME280;46961;52.836;6.376;2022-08-11T15:46:29;102126.09;;;38.05;17.63
55456;BME280;46961;52.836;6.376;2022-08-11T15:49:04;102119.50;;;38.01;17.47
55456;BME280;46961;52.836;6.376;2022-08-11T15:51:47;102113.25;;;38.09;17.60
55456;BME280;46961;52.836;6.376;2022-08-11T15:54:19;102114.59;;;38.12;17.01
55456;BME280;46961;52.836;6.376;2022-08-11T15:56:53;102108.41;;;38.15;17.77
55456;BME280;46961;52.836;6.376;2022-08-11T15:59:27;102110.53;;;38.23;17.37
55456;BME280;46961;52.836;6.376;2022-08-11T16:02:22;102109.00;;;38.31;17.14
55456;BME280;46961;52.836;6.376;2022-08-11T16:05:07;102112.81;;;38.35;18.02
55456;BME280;46961;52.836;6.376;2022-08-11T16:07:38;102105.59;;;38.34;17.35
55456;BME280;46961;52.836;6.376;2022-08-11T16:10:15;102107.38;;;38.44;18.18
55456;BME280;46961;52.836;6.376;2022-08-11T16:12:51;102091.72;;;38.48;17.79
55456;BME280;46961;52.836;6.376;2022-08-11T16:15:46;102094.19;;;38.50;17.34
55456;BME280;46961;52.836;6.376;2022-08-11T16:18:43;102093.56;;;38.53;17.48
55456;BME280;46961;52.836;6.376;2022-08-11T16:21:25;102093.50;;;38.58;17.13
55456;BME280;46961;52.836;6.376;2022-08-11T16:23:54;102087.28;;;38.61;17.30
55456;BME280;46961;52.836;6.376;2022-08-11T16:26:24;102089.09;;;38.71;16.33
55456;BME280;46961;52.836;6.376;2022-08-11T16:28:59;102084.25;;;38.76;16.75
55456;BME280;46961;52.836;6.376;2022-08-11T16:31:33;102088.03;;;38.80;17.45
55456;BME280;46961;52.836;6.376;2022-08-11T16:34:08;102089.16;;;38.93;17.38
55456;BME280;46961;52.836;6.376;2022-08-11T16:36:55;102088.03;;;38.94;17.41
55456;BME280;46961;52.836;6.376;2022-08-11T16:39:43;102080.31;;;38.91;17.61
55456;BME280;46961;52.836;6.376;2022-08-11T16:42:16;102075.25;;;38.93;18.12
55456;BME280;46961;52.836;6.376;2022-08-11T16:45:01;102080.00;;;38.93;17.93
55456;BME280;46961;52.836;6.376;2022-08-11T16:47:47;102084.75;;;38.78;18.00
55456;BME280;46961;52.836;6.376;2022-08-11T16:50:16;102083.31;;;38.67;18.13
55456;BME280;46961;52.836;6.376;2022-08-11T16:52:50;102087.06;;;38.57;18.05
55456;BME280;46961;52.836;6.376;2022-08-11T16:55:17;102087.19;;;38.52;18.19
55456;BME280;46961;52.836;6.376;2022-08-11T16:57:51;102091.81;;;38.43;18.43
55456;BME280;46961;52.836;6.376;2022-08-11T17:00:37;102086.34;;;38.38;18.16
55456;BME280;46961;52.836;6.376;2022-08-11T17:03:11;102087.78;;;38.35;18.98
55456;BME280;46961;52.836;6.376;2022-08-11T17:05:58;102083.88;;;38.36;18.80
55456;BME280;46961;52.836;6.376;2022-08-11T17:08:49;102097.25;;;38.34;19.34